DTTJ/DJE METAR and TAF weather

Enter ICAO airport designator
Station Type Date Time Source
DTTJ METAR 2020/02/25 12:00 UTC NOAA

DTTJ 251200Z 26010KT CAVOK 21/05 Q1019 NOSIG


Station Type Date Time Source
DTTJ Decoded METAR 2020/02/25 12:00 UTC NOAA

Djerba Mellita, Tunisia (DTTJ) 33-52N 010-46E 4M
Feb 25, 2020 - 07:00 AM EST / 2020.02.25 1200 UTC
Wind: from the W (260 degrees) at 12 MPH (10 KT):0
Visibility: greater than 7 mile(s):0
Temperature: 69 F (21 C)
Dew Point: 41 F (5 C)
Relative Humidity: 35%
Pressure (altimeter): 30.09 in. Hg (1019 hPa)
ob: DTTJ 251200Z 26010KT CAVOK 21/05 Q1019 NOSIG
cycle: 12

Station Type Date Time Source
DTTJ TAF 2020/02/25 12:57 UTC NOAA

TAF DTTJ 251100Z 2512/2612 23010KT CAVOK
BECMG 2606/2608 34010KT 9999 FEW023

Example: see airport list